sensor_id;sensor_type;location;lat;lon;timestamp;temperature;humidity
24382;DHT22;12502;50.678;7.172;2023-05-10T00:01:58;12.90;99.90
24382;DHT22;12502;50.678;7.172;2023-05-10T00:07:01;12.90;99.90
24382;DHT22;12502;50.678;7.172;2023-05-10T00:12:03;12.90;99.90
24382;DHT22;12502;50.678;7.172;2023-05-10T00:17:05;12.90;99.90
24382;DHT22;12502;50.678;7.172;2023-05-10T00:22:08;12.80;99.90
24382;DHT22;12502;50.678;7.172;2023-05-10T00:27:11;12.90;99.90
24382;DHT22;12502;50.678;7.172;2023-05-10T00:32:13;12.90;99.90
24382;DHT22;12502;50.678;7.172;2023-05-10T00:37:15;12.80;99.90
24382;DHT22;12502;50.678;7.172;2023-05-10T00:42:17;12.90;99.90
24382;DHT22;12502;50.678;7.172;2023-05-10T00:47:18;12.90;99.90
24382;DHT22;12502;50.678;7.172;2023-05-10T00:52:22;12.90;99.90
24382;DHT22;12502;50.678;7.172;2023-05-10T00:57:26;12.90;99.90
24382;DHT22;12502;50.678;7.172;2023-05-10T01:08:32;13.00;99.90
24382;DHT22;12502;50.678;7.172;2023-05-10T01:13:36;12.90;99.90
24382;DHT22;12502;50.678;7.172;2023-05-10T01:18:40;12.90;99.90
24382;DHT22;12502;50.678;7.172;2023-05-10T01:23:55;12.90;99.90
24382;DHT22;12502;50.678;7.172;2023-05-10T01:34:16;12.80;99.90
24382;DHT22;12502;50.678;7.172;2023-05-10T01:44:46;12.80;99.90
24382;DHT22;12502;50.678;7.172;2023-05-10T01:49:54;12.80;99.90
24382;DHT22;12502;50.678;7.172;2023-05-10T01:55:06;12.80;99.90
24382;DHT22;12502;50.678;7.172;2023-05-10T02:00:09;12.90;99.90
24382;DHT22;12502;50.678;7.172;2023-05-10T02:05:12;12.80;99.90
24382;DHT22;12502;50.678;7.172;2023-05-10T02:10:16;12.80;99.90
24382;DHT22;12502;50.678;7.172;2023-05-10T02:15:21;12.80;99.90
24382;DHT22;12502;50.678;7.172;2023-05-10T02:20:31;12.70;99.90
24382;DHT22;12502;50.678;7.172;2023-05-10T02:25:34;12.70;99.90
24382;DHT22;12502;50.678;7.172;2023-05-10T02:30:35;12.70;99.90
24382;DHT22;12502;50.678;7.172;2023-05-10T02:35:38;12.70;99.90
24382;DHT22;12502;50.678;7.172;2023-05-10T02:40:41;12.60;99.90
24382;DHT22;12502;50.678;7.172;2023-05-10T02:45:44;12.60;99.90
24382;DHT22;12502;50.678;7.172;2023-05-10T03:02:06;12.50;99.90
24382;DHT22;12502;50.678;7.172;2023-05-10T03:07:07;12.50;99.90
24382;DHT22;12502;50.678;7.172;2023-05-10T03:22:31;12.60;99.90
24382;DHT22;12502;50.678;7.172;2023-05-10T03:27:35;12.60;99.90
24382;DHT22;12502;50.678;7.172;2023-05-10T03:32:37;12.60;99.90
24382;DHT22;12502;50.678;7.172;2023-05-10T03:37:40;12.70;99.90
24382;DHT22;12502;50.678;7.172;2023-05-10T03:42:43;12.70;99.90
24382;DHT22;12502;50.678;7.172;2023-05-10T03:47:46;12.60;99.90
24382;DHT22;12502;50.678;7.172;2023-05-10T03:52:53;12.60;99.90
24382;DHT22;12502;50.678;7.172;2023-05-10T03:57:55;12.70;99.90
24382;DHT22;12502;50.678;7.172;2023-05-10T04:02:58;12.70;99.90
24382;DHT22;12502;50.678;7.172;2023-05-10T04:08:01;12.70;99.90
24382;DHT22;12502;50.678;7.172;2023-05-10T04:13:13;12.80;99.90
24382;DHT22;12502;50.678;7.172;2023-05-10T04:18:16;12.70;99.90
24382;DHT22;12502;50.678;7.172;2023-05-10T04:23:20;12.70;99.90
24382;DHT22;12502;50.678;7.172;2023-05-10T04:28:23;12.80;99.90
24382;DHT22;12502;50.678;7.172;2023-05-10T04:33:25;12.90;99.90
24382;DHT22;12502;50.678;7.172;2023-05-10T04:38:28;12.80;99.90
24382;DHT22;12502;50.678;7.172;2023-05-10T04:43:31;12.90;99.90
24382;DHT22;12502;50.678;7.172;2023-05-10T04:48:33;12.80;99.90
24382;DHT22;12502;50.678;7.172;2023-05-10T04:53:37;12.90;99.90
24382;DHT22;12502;50.678;7.172;2023-05-10T04:58:38;12.90;99.90
24382;DHT22;12502;50.678;7.172;2023-05-10T05:03:41;13.20;99.90
24382;DHT22;12502;50.678;7.172;2023-05-10T05:08:46;13.00;99.90
24382;DHT22;12502;50.678;7.172;2023-05-10T05:13:47;13.10;99.90
24382;DHT22;12502;50.678;7.172;2023-05-10T05:18:49;13.00;99.90
24382;DHT22;12502;50.678;7.172;2023-05-10T05:23:51;13.00;99.90
24382;DHT22;12502;50.678;7.172;2023-05-10T05:28:52;13.00;99.90
24382;DHT22;12502;50.678;7.172;2023-05-10T05:33:56;13.10;99.90
24382;DHT22;12502;50.678;7.172;2023-05-10T05:38:57;13.10;99.90
24382;DHT22;12502;50.678;7.172;2023-05-10T05:44:02;13.10;99.90
24382;DHT22;12502;50.678;7.172;2023-05-10T05:49:04;13.20;99.90
24382;DHT22;12502;50.678;7.172;2023-05-10T05:54:06;13.20;99.90
24382;DHT22;12502;50.678;7.172;2023-05-10T05:59:08;13.20;99.90
24382;DHT22;12502;50.678;7.172;2023-05-10T06:04:10;13.20;99.90
24382;DHT22;12502;50.678;7.172;2023-05-10T06:09:12;13.30;99.90
24382;DHT22;12502;50.678;7.172;2023-05-10T06:14:14;13.40;99.90
24382;DHT22;12502;50.678;7.172;2023-05-10T06:19:16;13.50;99.90
24382;DHT22;12502;50.678;7.172;2023-05-10T06:24:18;13.60;99.90
24382;DHT22;12502;50.678;7.172;2023-05-10T06:29:22;13.50;99.90
24382;DHT22;12502;50.678;7.172;2023-05-10T06:34:24;13.50;99.90
24382;DHT22;12502;50.678;7.172;2023-05-10T06:39:28;13.60;99.90
24382;DHT22;12502;50.678;7.172;2023-05-10T06:44:31;13.60;99.90
24382;DHT22;12502;50.678;7.172;2023-05-10T06:49:34;13.50;99.90
24382;DHT22;12502;50.678;7.172;2023-05-10T06:54:35;13.60;99.90
24382;DHT22;12502;50.678;7.172;2023-05-10T06:59:38;13.70;99.90
24382;DHT22;12502;50.678;7.172;2023-05-10T07:04:40;13.60;99.90
24382;DHT22;12502;50.678;7.172;2023-05-10T07:09:41;13.60;99.90
24382;DHT22;12502;50.678;7.172;2023-05-10T07:14:44;13.40;99.90
24382;DHT22;12502;50.678;7.172;2023-05-10T07:19:48;13.40;99.90
24382;DHT22;12502;50.678;7.172;2023-05-10T07:24:49;13.40;99.90
24382;DHT22;12502;50.678;7.172;2023-05-10T07:29:51;13.50;99.90
24382;DHT22;12502;50.678;7.172;2023-05-10T07:34:54;13.50;99.90
24382;DHT22;12502;50.678;7.172;2023-05-10T07:39:56;13.50;99.90
24382;DHT22;12502;50.678;7.172;2023-05-10T07:44:59;13.40;99.90
24382;DHT22;12502;50.678;7.172;2023-05-10T07:50:01;13.40;99.90
24382;DHT22;12502;50.678;7.172;2023-05-10T07:55:04;13.40;99.90
24382;DHT22;12502;50.678;7.172;2023-05-10T08:00:06;13.50;99.90
24382;DHT22;12502;50.678;7.172;2023-05-10T08:05:09;13.70;99.90
24382;DHT22;12502;50.678;7.172;2023-05-10T08:10:13;13.70;99.90
24382;DHT22;12502;50.678;7.172;2023-05-10T08:15:19;13.80;99.90
24382;DHT22;12502;50.678;7.172;2023-05-10T08:20:21;13.70;99.90
24382;DHT22;12502;50.678;7.172;2023-05-10T08:25:23;13.70;99.90
24382;DHT22;12502;50.678;7.172;2023-05-10T08:30:26;13.90;99.90
24382;DHT22;12502;50.678;7.172;2023-05-10T08:35:27;13.80;99.90
24382;DHT22;12502;50.678;7.172;2023-05-10T08:40:29;13.90;99.90
24382;DHT22;12502;50.678;7.172;2023-05-10T08:45:32;14.00;99.90
24382;DHT22;12502;50.678;7.172;2023-05-10T08:50:40;14.00;99.90
24382;DHT22;12502;50.678;7.172;2023-05-10T08:55:43;13.90;99.90
24382;DHT22;12502;50.678;7.172;2023-05-10T09:00:54;13.90;99.90
24382;DHT22;12502;50.678;7.172;2023-05-10T09:05:56;13.90;99.90
24382;DHT22;12502;50.678;7.172;2023-05-10T09:16:11;13.80;99.90
24382;DHT22;12502;50.678;7.172;2023-05-10T09:21:27;13.20;99.90
24382;DHT22;12502;50.678;7.172;2023-05-10T09:26:30;13.20;99.90
24382;DHT22;12502;50.678;7.172;2023-05-10T09:31:50;13.20;99.90
24382;DHT22;12502;50.678;7.172;2023-05-10T09:36:57;13.20;99.90
24382;DHT22;12502;50.678;7.172;2023-05-10T09:42:01;13.20;99.90
24382;DHT22;12502;50.678;7.172;2023-05-10T09:47:05;13.40;99.90
24382;DHT22;12502;50.678;7.172;2023-05-10T09:52:07;13.30;99.90
24382;DHT22;12502;50.678;7.172;2023-05-10T09:57:14;13.50;99.90
24382;DHT22;12502;50.678;7.172;2023-05-10T10:02:20;13.60;99.90
24382;DHT22;12502;50.678;7.172;2023-05-10T10:07:24;13.70;99.90
24382;DHT22;12502;50.678;7.172;2023-05-10T10:12:29;13.80;99.90
24382;DHT22;12502;50.678;7.172;2023-05-10T10:17:30;13.90;99.90
24382;DHT22;12502;50.678;7.172;2023-05-10T10:22:34;13.80;99.90
24382;DHT22;12502;50.678;7.172;2023-05-10T10:38:55;13.90;99.90
24382;DHT22;12502;50.678;7.172;2023-05-10T10:49:33;14.00;99.90
24382;DHT22;12502;50.678;7.172;2023-05-10T11:16:13;14.30;99.90
24382;DHT22;12502;50.678;7.172;2023-05-10T11:21:24;14.40;99.90
24382;DHT22;12502;50.678;7.172;2023-05-10T11:31:42;14.30;99.90
24382;DHT22;12502;50.678;7.172;2023-05-10T11:36:44;14.40;99.90
24382;DHT22;12502;50.678;7.172;2023-05-10T11:41:56;14.60;99.90
24382;DHT22;12502;50.678;7.172;2023-05-10T11:47:12;14.60;99.90
24382;DHT22;12502;50.678;7.172;2023-05-10T12:03:53;14.90;99.90
24382;DHT22;12502;50.678;7.172;2023-05-10T12:19:38;14.60;99.90
24382;DHT22;12502;50.678;7.172;2023-05-10T12:24:42;14.30;99.90
24382;DHT22;12502;50.678;7.172;2023-05-10T12:30:02;14.20;99.90
24382;DHT22;12502;50.678;7.172;2023-05-10T12:35:05;14.30;99.90
24382;DHT22;12502;50.678;7.172;2023-05-10T12:40:08;14.50;99.90
24382;DHT22;12502;50.678;7.172;2023-05-10T12:45:13;14.50;99.90
24382;DHT22;12502;50.678;7.172;2023-05-10T12:50:15;14.30;99.90
24382;DHT22;12502;50.678;7.172;2023-05-10T12:55:17;14.20;99.90
24382;DHT22;12502;50.678;7.172;2023-05-10T13:00:19;14.30;99.90
24382;DHT22;12502;50.678;7.172;2023-05-10T13:05:23;14.40;99.90
24382;DHT22;12502;50.678;7.172;2023-05-10T13:10:24;15.00;99.90
24382;DHT22;12502;50.678;7.172;2023-05-10T13:15:26;14.80;99.90
24382;DHT22;12502;50.678;7.172;2023-05-10T13:20:30;14.80;99.90
24382;DHT22;12502;50.678;7.172;2023-05-10T13:25:32;14.70;99.90
24382;DHT22;12502;50.678;7.172;2023-05-10T13:30:33;14.80;99.90
24382;DHT22;12502;50.678;7.172;2023-05-10T13:35:35;14.90;99.90
24382;DHT22;12502;50.678;7.172;2023-05-10T13:40:37;14.80;99.90
24382;DHT22;12502;50.678;7.172;2023-05-10T13:45:42;14.90;99.90
24382;DHT22;12502;50.678;7.172;2023-05-10T13:50:46;14.80;99.90
24382;DHT22;12502;50.678;7.172;2023-05-10T13:55:48;14.70;99.90
24382;DHT22;12502;50.678;7.172;2023-05-10T14:00:50;14.60;99.90
24382;DHT22;12502;50.678;7.172;2023-05-10T14:05:51;14.50;99.90
24382;DHT22;12502;50.678;7.172;2023-05-10T14:10:53;14.50;99.90
24382;DHT22;12502;50.678;7.172;2023-05-10T14:15:55;14.40;99.90
24382;DHT22;12502;50.678;7.172;2023-05-10T14:21:01;14.10;99.90
24382;DHT22;12502;50.678;7.172;2023-05-10T14:26:07;13.70;99.90
24382;DHT22;12502;50.678;7.172;2023-05-10T14:31:16;13.00;99.90
24382;DHT22;12502;50.678;7.172;2023-05-10T14:36:21;12.80;99.90
24382;DHT22;12502;50.678;7.172;2023-05-10T14:41:24;13.00;99.90
24382;DHT22;12502;50.678;7.172;2023-05-10T14:46:26;13.20;99.90
24382;DHT22;12502;50.678;7.172;2023-05-10T14:51:29;13.50;99.90
24382;DHT22;12502;50.678;7.172;2023-05-10T14:56:32;14.00;99.90
24382;DHT22;12502;50.678;7.172;2023-05-10T15:01:36;14.00;99.90
24382;DHT22;12502;50.678;7.172;2023-05-10T15:06:40;14.20;99.90
24382;DHT22;12502;50.678;7.172;2023-05-10T15:11:44;14.10;99.90
24382;DHT22;12502;50.678;7.172;2023-05-10T15:16:46;14.30;99.90
24382;DHT22;12502;50.678;7.172;2023-05-10T15:21:48;14.20;99.90
24382;DHT22;12502;50.678;7.172;2023-05-10T15:26:52;14.20;99.90
24382;DHT22;12502;50.678;7.172;2023-05-10T15:32:01;13.90;99.90
24382;DHT22;12502;50.678;7.172;2023-05-10T15:37:03;13.80;99.90
24382;DHT22;12502;50.678;7.172;2023-05-10T15:42:13;13.80;99.90
24382;DHT22;12502;50.678;7.172;2023-05-10T16:04:45;14.10;99.90
24382;DHT22;12502;50.678;7.172;2023-05-10T16:09:48;14.10;99.90
24382;DHT22;12502;50.678;7.172;2023-05-10T16:14:52;14.10;99.90
24382;DHT22;12502;50.678;7.172;2023-05-10T16:19:54;14.20;99.90
24382;DHT22;12502;50.678;7.172;2023-05-10T16:25:02;14.20;99.90
24382;DHT22;12502;50.678;7.172;2023-05-10T16:30:05;14.20;99.90
24382;DHT22;12502;50.678;7.172;2023-05-10T16:35:08;14.40;99.90
24382;DHT22;12502;50.678;7.172;2023-05-10T16:45:25;14.30;99.90
24382;DHT22;12502;50.678;7.172;2023-05-10T16:50:34;14.40;99.90
24382;DHT22;12502;50.678;7.172;2023-05-10T16:55:43;14.30;99.90
24382;DHT22;12502;50.678;7.172;2023-05-10T17:00:45;14.30;99.90
24382;DHT22;12502;50.678;7.172;2023-05-10T17:05:49;14.30;99.90
24382;DHT22;12502;50.678;7.172;2023-05-10T17:11:01;14.30;99.90
24382;DHT22;12502;50.678;7.172;2023-05-10T17:16:06;14.20;99.90
24382;DHT22;12502;50.678;7.172;2023-05-10T17:21:10;14.00;99.90
24382;DHT22;12502;50.678;7.172;2023-05-10T17:26:17;14.00;99.90
24382;DHT22;12502;50.678;7.172;2023-05-10T17:36:25;13.80;99.90
24382;DHT22;12502;50.678;7.172;2023-05-10T17:41:28;13.90;99.90
24382;DHT22;12502;50.678;7.172;2023-05-10T17:46:32;13.80;99.90
24382;DHT22;12502;50.678;7.172;2023-05-10T17:51:34;13.80;99.90
24382;DHT22;12502;50.678;7.172;2023-05-10T17:56:35;13.80;99.90
24382;DHT22;12502;50.678;7.172;2023-05-10T18:01:37;13.80;99.90
24382;DHT22;12502;50.678;7.172;2023-05-10T18:06:39;13.80;99.90
24382;DHT22;12502;50.678;7.172;2023-05-10T18:11:42;13.80;99.90
24382;DHT22;12502;50.678;7.172;2023-05-10T18:16:44;13.70;99.90
24382;DHT22;12502;50.678;7.172;2023-05-10T18:21:46;13.70;99.90
24382;DHT22;12502;50.678;7.172;2023-05-10T18:26:49;13.70;99.90
24382;DHT22;12502;50.678;7.172;2023-05-10T18:31:53;13.70;99.90
24382;DHT22;12502;50.678;7.172;2023-05-10T18:36:56;13.60;99.90
24382;DHT22;12502;50.678;7.172;2023-05-10T18:41:59;13.50;99.90
24382;DHT22;12502;50.678;7.172;2023-05-10T18:47:00;13.40;99.90
24382;DHT22;12502;50.678;7.172;2023-05-10T18:52:03;13.40;99.90
24382;DHT22;12502;50.678;7.172;2023-05-10T18:57:05;13.50;99.90
24382;DHT22;12502;50.678;7.172;2023-05-10T19:02:07;13.40;99.90
24382;DHT22;12502;50.678;7.172;2023-05-10T19:07:10;13.40;99.90
24382;DHT22;12502;50.678;7.172;2023-05-10T19:12:13;13.40;99.90
24382;DHT22;12502;50.678;7.172;2023-05-10T19:17:16;13.40;99.90
24382;DHT22;12502;50.678;7.172;2023-05-10T19:22:20;13.30;99.90
24382;DHT22;12502;50.678;7.172;2023-05-10T19:27:42;13.30;99.90
24382;DHT22;12502;50.678;7.172;2023-05-10T19:32:46;13.30;99.90
24382;DHT22;12502;50.678;7.172;2023-05-10T19:37:54;13.20;99.90
24382;DHT22;12502;50.678;7.172;2023-05-10T19:42:55;13.20;99.90
24382;DHT22;12502;50.678;7.172;2023-05-10T19:47:57;13.20;99.90
24382;DHT22;12502;50.678;7.172;2023-05-10T19:52:59;13.10;99.90
24382;DHT22;12502;50.678;7.172;2023-05-10T19:58:13;13.10;99.90
24382;DHT22;12502;50.678;7.172;2023-05-10T20:03:15;13.00;99.90
24382;DHT22;12502;50.678;7.172;2023-05-10T20:08:17;13.00;99.90
24382;DHT22;12502;50.678;7.172;2023-05-10T20:13:20;12.90;99.90
24382;DHT22;12502;50.678;7.172;2023-05-10T20:18:21;12.90;99.90
24382;DHT22;12502;50.678;7.172;2023-05-10T20:23:23;12.90;99.90
24382;DHT22;12502;50.678;7.172;2023-05-10T20:28:26;12.80;99.90
24382;DHT22;12502;50.678;7.172;2023-05-10T20:33:29;12.80;99.90
24382;DHT22;12502;50.678;7.172;2023-05-10T20:38:37;12.70;99.90
24382;DHT22;12502;50.678;7.172;2023-05-10T20:43:39;12.70;99.90
24382;DHT22;12502;50.678;7.172;2023-05-10T20:48:40;12.60;99.90
24382;DHT22;12502;50.678;7.172;2023-05-10T20:53:44;12.60;99.90
24382;DHT22;12502;50.678;7.172;2023-05-10T20:58:47;12.60;99.90
24382;DHT22;12502;50.678;7.172;2023-05-10T21:03:49;12.60;99.90
24382;DHT22;12502;50.678;7.172;2023-05-10T21:08:51;12.60;99.90
24382;DHT22;12502;50.678;7.172;2023-05-10T21:13:55;12.60;99.90
24382;DHT22;12502;50.678;7.172;2023-05-10T21:18:57;12.50;99.90
24382;DHT22;12502;50.678;7.172;2023-05-10T21:24:00;12.60;99.90
24382;DHT22;12502;50.678;7.172;2023-05-10T21:29:03;12.50;99.90
24382;DHT22;12502;50.678;7.172;2023-05-10T21:34:06;12.50;99.90
24382;DHT22;12502;50.678;7.172;2023-05-10T21:39:08;12.60;99.90
24382;DHT22;12502;50.678;7.172;2023-05-10T21:44:09;12.50;99.90
24382;DHT22;12502;50.678;7.172;2023-05-10T21:49:11;12.40;99.90
24382;DHT22;12502;50.678;7.172;2023-05-10T21:54:14;12.40;99.90
24382;DHT22;12502;50.678;7.172;2023-05-10T21:59:16;12.30;99.90
24382;DHT22;12502;50.678;7.172;2023-05-10T22:04:18;12.20;99.90
24382;DHT22;12502;50.678;7.172;2023-05-10T22:09:21;12.20;99.90
24382;DHT22;12502;50.678;7.172;2023-05-10T22:14:24;12.20;99.90
24382;DHT22;12502;50.678;7.172;2023-05-10T22:19:27;12.10;99.90
24382;DHT22;12502;50.678;7.172;2023-05-10T22:24:29;12.20;99.90
24382;DHT22;12502;50.678;7.172;2023-05-10T22:29:31;12.10;99.90
24382;DHT22;12502;50.678;7.172;2023-05-10T22:34:34;12.10;99.90
24382;DHT22;12502;50.678;7.172;2023-05-10T22:39:39;12.20;99.90
24382;DHT22;12502;50.678;7.172;2023-05-10T22:44:42;12.10;99.90
24382;DHT22;12502;50.678;7.172;2023-05-10T22:49:44;12.00;99.90
24382;DHT22;12502;50.678;7.172;2023-05-10T22:54:46;11.90;99.90
24382;DHT22;12502;50.678;7.172;2023-05-10T22:59:48;11.90;99.90
24382;DHT22;12502;50.678;7.172;2023-05-10T23:04:49;11.80;99.90
24382;DHT22;12502;50.678;7.172;2023-05-10T23:09:53;11.70;99.90
24382;DHT22;12502;50.678;7.172;2023-05-10T23:14:54;11.60;99.90
24382;DHT22;12502;50.678;7.172;2023-05-10T23:19:57;11.50;99.90
24382;DHT22;12502;50.678;7.172;2023-05-10T23:24:59;11.40;99.90
24382;DHT22;12502;50.678;7.172;2023-05-10T23:30:01;11.50;99.90
24382;DHT22;12502;50.678;7.172;2023-05-10T23:35:04;11.40;99.90
24382;DHT22;12502;50.678;7.172;2023-05-10T23:40:06;11.40;99.90
24382;DHT22;12502;50.678;7.172;2023-05-10T23:45:08;11.30;99.90
24382;DHT22;12502;50.678;7.172;2023-05-10T23:50:10;11.30;99.90
24382;DHT22;12502;50.678;7.172;2023-05-10T23:55:12;11.20;99.90
